sensor_id;sensor_type;location;lat;lon;timestamp;P1;durP1;ratioP1;P2;durP2;ratioP2
9306;SDS011;4691;47.612;7.610;2023-01-25T00:01:46;80.15;;;32.17;;
9306;SDS011;4691;47.612;7.610;2023-01-25T00:04:11;83.55;;;32.92;;
9306;SDS011;4691;47.612;7.610;2023-01-25T00:06:36;83.03;;;31.08;;
9306;SDS011;4691;47.612;7.610;2023-01-25T00:09:02;90.45;;;32.42;;
9306;SDS011;4691;47.612;7.610;2023-01-25T00:11:27;97.22;;;33.72;;
9306;SDS011;4691;47.612;7.610;2023-01-25T00:13:53;91.60;;;35.30;;
9306;SDS011;4691;47.612;7.610;2023-01-25T00:16:19;80.40;;;31.63;;
9306;SDS011;4691;47.612;7.610;2023-01-25T00:18:45;84.93;;;31.52;;
9306;SDS011;4691;47.612;7.610;2023-01-25T00:21:11;91.13;;;34.22;;
9306;SDS011;4691;47.612;7.610;2023-01-25T00:23:37;72.78;;;30.00;;
9306;SDS011;4691;47.612;7.610;2023-01-25T00:26:02;76.32;;;31.90;;
9306;SDS011;4691;47.612;7.610;2023-01-25T00:28:27;77.05;;;29.88;;
9306;SDS011;4691;47.612;7.610;2023-01-25T00:30:52;85.57;;;34.25;;
9306;SDS011;4691;47.612;7.610;2023-01-25T00:35:43;80.47;;;32.45;;
9306;SDS011;4691;47.612;7.610;2023-01-25T00:40:59;77.07;;;31.60;;
9306;SDS011;4691;47.612;7.610;2023-01-25T00:43:25;84.80;;;32.35;;
9306;SDS011;4691;47.612;7.610;2023-01-25T00:45:51;75.25;;;31.67;;
9306;SDS011;4691;47.612;7.610;2023-01-25T00:48:16;79.95;;;30.73;;
9306;SDS011;4691;47.612;7.610;2023-01-25T00:50:41;90.32;;;32.20;;
9306;SDS011;4691;47.612;7.610;2023-01-25T00:53:07;88.00;;;34.17;;
9306;SDS011;4691;47.612;7.610;2023-01-25T00:55:32;74.65;;;29.65;;
9306;SDS011;4691;47.612;7.610;2023-01-25T00:57:57;79.85;;;31.88;;
9306;SDS011;4691;47.612;7.610;2023-01-25T01:00:22;83.35;;;31.67;;
9306;SDS011;4691;47.612;7.610;2023-01-25T01:02:48;71.97;;;28.23;;
9306;SDS011;4691;47.612;7.610;2023-01-25T01:05:13;93.72;;;33.47;;
9306;SDS011;4691;47.612;7.610;2023-01-25T01:07:38;92.82;;;35.20;;
9306;SDS011;4691;47.612;7.610;2023-01-25T01:10:04;82.90;;;31.90;;
9306;SDS011;4691;47.612;7.610;2023-01-25T01:12:29;83.03;;;31.45;;
9306;SDS011;4691;47.612;7.610;2023-01-25T01:14:55;76.75;;;30.88;;
9306;SDS011;4691;47.612;7.610;2023-01-25T01:17:21;91.90;;;34.55;;
9306;SDS011;4691;47.612;7.610;2023-01-25T01:19:46;94.15;;;33.58;;
9306;SDS011;4691;47.612;7.610;2023-01-25T01:22:12;82.15;;;30.85;;
9306;SDS011;4691;47.612;7.610;2023-01-25T01:24:37;77.80;;;31.20;;
9306;SDS011;4691;47.612;7.610;2023-01-25T01:27:03;72.50;;;29.73;;
9306;SDS011;4691;47.612;7.610;2023-01-25T01:29:28;90.75;;;33.08;;
9306;SDS011;4691;47.612;7.610;2023-01-25T01:31:54;99.75;;;34.28;;
9306;SDS011;4691;47.612;7.610;2023-01-25T01:34:20;88.03;;;33.38;;
9306;SDS011;4691;47.612;7.610;2023-01-25T01:36:45;81.03;;;31.60;;
9306;SDS011;4691;47.612;7.610;2023-01-25T01:39:10;96.45;;;33.65;;
9306;SDS011;4691;47.612;7.610;2023-01-25T01:41:36;84.43;;;33.22;;
9306;SDS011;4691;47.612;7.610;2023-01-25T01:44:02;86.32;;;33.42;;
9306;SDS011;4691;47.612;7.610;2023-01-25T01:46:34;86.45;;;30.73;;
9306;SDS011;4691;47.612;7.610;2023-01-25T01:49:09;86.90;;;30.98;;
9306;SDS011;4691;47.612;7.610;2023-01-25T01:51:52;82.60;;;31.42;;
9306;SDS011;4691;47.612;7.610;2023-01-25T01:57:17;86.15;;;31.60;;
9306;SDS011;4691;47.612;7.610;2023-01-25T01:59:54;74.80;;;29.27;;
9306;SDS011;4691;47.612;7.610;2023-01-25T02:02:24;104.45;;;34.60;;
9306;SDS011;4691;47.612;7.610;2023-01-25T02:04:50;83.30;;;30.95;;
9306;SDS011;4691;47.612;7.610;2023-01-25T02:07:22;86.97;;;33.38;;
9306;SDS011;4691;47.612;7.610;2023-01-25T02:09:51;93.60;;;33.33;;
9306;SDS011;4691;47.612;7.610;2023-01-25T02:12:17;96.90;;;34.88;;
9306;SDS011;4691;47.612;7.610;2023-01-25T02:14:46;94.07;;;33.97;;
9306;SDS011;4691;47.612;7.610;2023-01-25T02:17:13;99.57;;;35.70;;
9306;SDS011;4691;47.612;7.610;2023-01-25T02:22:27;90.28;;;33.42;;
9306;SDS011;4691;47.612;7.610;2023-01-25T02:25:12;96.80;;;34.20;;
9306;SDS011;4691;47.612;7.610;2023-01-25T02:27:40;92.05;;;31.30;;
9306;SDS011;4691;47.612;7.610;2023-01-25T02:30:10;122.10;;;36.38;;
9306;SDS011;4691;47.612;7.610;2023-01-25T02:32:35;91.55;;;32.53;;
9306;SDS011;4691;47.612;7.610;2023-01-25T02:35:01;113.50;;;36.08;;
9306;SDS011;4691;47.612;7.610;2023-01-25T02:37:26;104.15;;;36.60;;
9306;SDS011;4691;47.612;7.610;2023-01-25T02:39:52;115.03;;;36.88;;
9306;SDS011;4691;47.612;7.610;2023-01-25T02:42:17;108.88;;;35.65;;
9306;SDS011;4691;47.612;7.610;2023-01-25T02:44:42;104.78;;;35.60;;
9306;SDS011;4691;47.612;7.610;2023-01-25T02:47:08;85.45;;;32.10;;
9306;SDS011;4691;47.612;7.610;2023-01-25T02:49:34;109.18;;;38.08;;
9306;SDS011;4691;47.612;7.610;2023-01-25T02:52:00;95.43;;;33.97;;
9306;SDS011;4691;47.612;7.610;2023-01-25T02:54:27;116.75;;;37.40;;
9306;SDS011;4691;47.612;7.610;2023-01-25T02:56:53;110.05;;;36.20;;
9306;SDS011;4691;47.612;7.610;2023-01-25T02:59:19;119.35;;;38.03;;
9306;SDS011;4691;47.612;7.610;2023-01-25T03:01:44;100.20;;;36.30;;
9306;SDS011;4691;47.612;7.610;2023-01-25T03:04:10;109.80;;;37.00;;
9306;SDS011;4691;47.612;7.610;2023-01-25T03:06:36;112.60;;;37.03;;
9306;SDS011;4691;47.612;7.610;2023-01-25T03:09:03;113.32;;;37.58;;
9306;SDS011;4691;47.612;7.610;2023-01-25T03:11:30;129.57;;;38.97;;
9306;SDS011;4691;47.612;7.610;2023-01-25T03:13:55;96.75;;;33.95;;
9306;SDS011;4691;47.612;7.610;2023-01-25T03:19:36;126.75;;;37.67;;
9306;SDS011;4691;47.612;7.610;2023-01-25T03:22:02;121.68;;;38.80;;
9306;SDS011;4691;47.612;7.610;2023-01-25T03:24:27;106.65;;;36.75;;
9306;SDS011;4691;47.612;7.610;2023-01-25T03:26:55;134.20;;;40.58;;
9306;SDS011;4691;47.612;7.610;2023-01-25T03:29:37;99.30;;;33.53;;
9306;SDS011;4691;47.612;7.610;2023-01-25T03:32:05;126.32;;;40.35;;
9306;SDS011;4691;47.612;7.610;2023-01-25T03:34:35;119.13;;;36.88;;
9306;SDS011;4691;47.612;7.610;2023-01-25T03:37:03;118.00;;;36.47;;
9306;SDS011;4691;47.612;7.610;2023-01-25T03:39:28;115.60;;;38.45;;
9306;SDS011;4691;47.612;7.610;2023-01-25T03:41:54;118.10;;;38.80;;
9306;SDS011;4691;47.612;7.610;2023-01-25T03:44:22;117.10;;;36.80;;
9306;SDS011;4691;47.612;7.610;2023-01-25T03:46:50;115.82;;;38.30;;
9306;SDS011;4691;47.612;7.610;2023-01-25T03:49:15;109.35;;;36.65;;
9306;SDS011;4691;47.612;7.610;2023-01-25T03:51:42;114.53;;;37.08;;
9306;SDS011;4691;47.612;7.610;2023-01-25T03:54:10;122.50;;;38.78;;
9306;SDS011;4691;47.612;7.610;2023-01-25T03:56:38;114.70;;;37.85;;
9306;SDS011;4691;47.612;7.610;2023-01-25T03:59:03;107.28;;;37.38;;
9306;SDS011;4691;47.612;7.610;2023-01-25T04:01:31;102.43;;;35.00;;
9306;SDS011;4691;47.612;7.610;2023-01-25T04:04:02;108.88;;;35.92;;
9306;SDS011;4691;47.612;7.610;2023-01-25T04:06:27;111.20;;;38.65;;
9306;SDS011;4691;47.612;7.610;2023-01-25T04:08:53;118.05;;;38.38;;
9306;SDS011;4691;47.612;7.610;2023-01-25T04:11:18;117.68;;;36.83;;
9306;SDS011;4691;47.612;7.610;2023-01-25T04:13:46;112.15;;;34.38;;
9306;SDS011;4691;47.612;7.610;2023-01-25T04:16:12;117.28;;;35.78;;
9306;SDS011;4691;47.612;7.610;2023-01-25T04:18:37;128.98;;;39.53;;
9306;SDS011;4691;47.612;7.610;2023-01-25T04:21:04;128.60;;;37.80;;
9306;SDS011;4691;47.612;7.610;2023-01-25T04:23:29;111.82;;;35.67;;
9306;SDS011;4691;47.612;7.610;2023-01-25T04:25:55;102.45;;;34.50;;
9306;SDS011;4691;47.612;7.610;2023-01-25T04:28:22;120.72;;;35.50;;
9306;SDS011;4691;47.612;7.610;2023-01-25T04:30:52;103.93;;;33.97;;
9306;SDS011;4691;47.612;7.610;2023-01-25T04:33:20;118.53;;;35.40;;
9306;SDS011;4691;47.612;7.610;2023-01-25T04:35:46;117.32;;;37.75;;
9306;SDS011;4691;47.612;7.610;2023-01-25T04:38:12;112.18;;;34.95;;
9306;SDS011;4691;47.612;7.610;2023-01-25T04:40:38;113.22;;;36.63;;
9306;SDS011;4691;47.612;7.610;2023-01-25T04:43:04;102.45;;;34.92;;
9306;SDS011;4691;47.612;7.610;2023-01-25T04:45:30;110.15;;;34.85;;
9306;SDS011;4691;47.612;7.610;2023-01-25T04:47:59;125.53;;;37.17;;
9306;SDS011;4691;47.612;7.610;2023-01-25T04:50:28;111.25;;;35.97;;
9306;SDS011;4691;47.612;7.610;2023-01-25T04:52:54;107.60;;;36.10;;
9306;SDS011;4691;47.612;7.610;2023-01-25T04:55:29;115.28;;;35.75;;
9306;SDS011;4691;47.612;7.610;2023-01-25T04:58:30;100.85;;;32.65;;
9306;SDS011;4691;47.612;7.610;2023-01-25T05:00:58;110.93;;;35.45;;
9306;SDS011;4691;47.612;7.610;2023-01-25T05:03:26;119.93;;;37.58;;
9306;SDS011;4691;47.612;7.610;2023-01-25T05:05:52;135.05;;;37.20;;
9306;SDS011;4691;47.612;7.610;2023-01-25T05:08:20;129.93;;;40.15;;
9306;SDS011;4691;47.612;7.610;2023-01-25T05:10:52;111.50;;;34.83;;
9306;SDS011;4691;47.612;7.610;2023-01-25T05:13:17;93.95;;;33.92;;
9306;SDS011;4691;47.612;7.610;2023-01-25T05:15:43;130.23;;;38.13;;
9306;SDS011;4691;47.612;7.610;2023-01-25T05:18:08;94.85;;;33.05;;
9306;SDS011;4691;47.612;7.610;2023-01-25T05:20:33;112.05;;;34.35;;
9306;SDS011;4691;47.612;7.610;2023-01-25T05:22:59;131.13;;;40.40;;
9306;SDS011;4691;47.612;7.610;2023-01-25T05:25:24;104.25;;;34.40;;
9306;SDS011;4691;47.612;7.610;2023-01-25T05:28:09;105.60;;;34.17;;
9306;SDS011;4691;47.612;7.610;2023-01-25T05:30:34;128.70;;;38.08;;
9306;SDS011;4691;47.612;7.610;2023-01-25T05:33:04;114.05;;;35.15;;
9306;SDS011;4691;47.612;7.610;2023-01-25T05:37:57;101.13;;;32.77;;
9306;SDS011;4691;47.612;7.610;2023-01-25T05:40:23;123.25;;;36.00;;
9306;SDS011;4691;47.612;7.610;2023-01-25T05:43:05;122.28;;;37.55;;
9306;SDS011;4691;47.612;7.610;2023-01-25T05:45:33;118.88;;;38.53;;
9306;SDS011;4691;47.612;7.610;2023-01-25T05:47:58;116.03;;;37.13;;
9306;SDS011;4691;47.612;7.610;2023-01-25T05:50:24;127.47;;;37.28;;
9306;SDS011;4691;47.612;7.610;2023-01-25T05:52:50;103.80;;;35.28;;
9306;SDS011;4691;47.612;7.610;2023-01-25T05:55:15;139.68;;;38.70;;
9306;SDS011;4691;47.612;7.610;2023-01-25T05:57:41;131.88;;;39.13;;
9306;SDS011;4691;47.612;7.610;2023-01-25T06:00:07;122.57;;;37.75;;
9306;SDS011;4691;47.612;7.610;2023-01-25T06:02:33;117.55;;;36.00;;
9306;SDS011;4691;47.612;7.610;2023-01-25T06:04:59;137.40;;;37.90;;
9306;SDS011;4691;47.612;7.610;2023-01-25T06:07:24;112.07;;;34.40;;
9306;SDS011;4691;47.612;7.610;2023-01-25T06:09:49;116.68;;;34.70;;
9306;SDS011;4691;47.612;7.610;2023-01-25T06:12:14;131.38;;;36.67;;
9306;SDS011;4691;47.612;7.610;2023-01-25T06:14:40;108.07;;;33.08;;
9306;SDS011;4691;47.612;7.610;2023-01-25T06:17:06;109.70;;;34.75;;
9306;SDS011;4691;47.612;7.610;2023-01-25T06:19:31;125.70;;;37.60;;
9306;SDS011;4691;47.612;7.610;2023-01-25T06:21:57;112.35;;;34.53;;
9306;SDS011;4691;47.612;7.610;2023-01-25T06:24:22;126.55;;;36.92;;
9306;SDS011;4691;47.612;7.610;2023-01-25T06:26:47;129.88;;;35.63;;
9306;SDS011;4691;47.612;7.610;2023-01-25T06:29:12;107.68;;;36.75;;
9306;SDS011;4691;47.612;7.610;2023-01-25T06:31:38;133.90;;;36.90;;
9306;SDS011;4691;47.612;7.610;2023-01-25T06:34:03;107.75;;;35.80;;
9306;SDS011;4691;47.612;7.610;2023-01-25T06:36:30;117.85;;;35.45;;
9306;SDS011;4691;47.612;7.610;2023-01-25T06:38:55;111.32;;;35.00;;
9306;SDS011;4691;47.612;7.610;2023-01-25T06:41:21;143.85;;;38.92;;
9306;SDS011;4691;47.612;7.610;2023-01-25T06:43:49;127.15;;;36.85;;
9306;SDS011;4691;47.612;7.610;2023-01-25T06:46:15;128.25;;;37.78;;
9306;SDS011;4691;47.612;7.610;2023-01-25T06:48:40;111.25;;;34.53;;
9306;SDS011;4691;47.612;7.610;2023-01-25T06:51:07;108.07;;;33.67;;
9306;SDS011;4691;47.612;7.610;2023-01-25T06:53:34;143.95;;;38.83;;
9306;SDS011;4691;47.612;7.610;2023-01-25T06:56:03;124.88;;;36.40;;
9306;SDS011;4691;47.612;7.610;2023-01-25T06:58:30;136.20;;;38.38;;
9306;SDS011;4691;47.612;7.610;2023-01-25T07:01:00;94.68;;;32.92;;
9306;SDS011;4691;47.612;7.610;2023-01-25T07:04:00;108.47;;;34.22;;
9306;SDS011;4691;47.612;7.610;2023-01-25T07:06:29;113.18;;;33.92;;
9306;SDS011;4691;47.612;7.610;2023-01-25T07:09:02;132.60;;;38.33;;
9306;SDS011;4691;47.612;7.610;2023-01-25T07:11:28;121.57;;;36.80;;
9306;SDS011;4691;47.612;7.610;2023-01-25T07:14:15;134.90;;;38.95;;
9306;SDS011;4691;47.612;7.610;2023-01-25T07:16:58;125.97;;;37.05;;
9306;SDS011;4691;47.612;7.610;2023-01-25T07:19:23;118.20;;;35.22;;
9306;SDS011;4691;47.612;7.610;2023-01-25T07:21:49;135.93;;;38.30;;
9306;SDS011;4691;47.612;7.610;2023-01-25T07:24:15;136.27;;;37.00;;
9306;SDS011;4691;47.612;7.610;2023-01-25T07:26:42;109.78;;;34.20;;
9306;SDS011;4691;47.612;7.610;2023-01-25T07:29:10;125.60;;;37.75;;
9306;SDS011;4691;47.612;7.610;2023-01-25T07:31:40;121.57;;;35.50;;
9306;SDS011;4691;47.612;7.610;2023-01-25T07:34:07;119.18;;;34.33;;
9306;SDS011;4691;47.612;7.610;2023-01-25T07:36:34;134.05;;;40.35;;
9306;SDS011;4691;47.612;7.610;2023-01-25T07:38:59;139.02;;;38.15;;
9306;SDS011;4691;47.612;7.610;2023-01-25T07:41:24;125.63;;;36.65;;
9306;SDS011;4691;47.612;7.610;2023-01-25T07:43:50;128.55;;;38.95;;
9306;SDS011;4691;47.612;7.610;2023-01-25T07:46:16;121.88;;;36.45;;
9306;SDS011;4691;47.612;7.610;2023-01-25T07:48:45;117.50;;;36.63;;
9306;SDS011;4691;47.612;7.610;2023-01-25T07:51:15;100.05;;;32.53;;
9306;SDS011;4691;47.612;7.610;2023-01-25T07:53:48;108.07;;;33.40;;
9306;SDS011;4691;47.612;7.610;2023-01-25T07:56:16;130.07;;;37.33;;
9306;SDS011;4691;47.612;7.610;2023-01-25T07:58:42;96.85;;;31.33;;
9306;SDS011;4691;47.612;7.610;2023-01-25T08:01:08;107.65;;;35.15;;
9306;SDS011;4691;47.612;7.610;2023-01-25T08:03:35;100.22;;;33.90;;
9306;SDS011;4691;47.612;7.610;2023-01-25T08:06:01;108.05;;;34.47;;
9306;SDS011;4691;47.612;7.610;2023-01-25T08:08:29;113.28;;;34.00;;
9306;SDS011;4691;47.612;7.610;2023-01-25T08:10:58;119.43;;;38.45;;
9306;SDS011;4691;47.612;7.610;2023-01-25T08:13:23;121.15;;;36.50;;
9306;SDS011;4691;47.612;7.610;2023-01-25T08:15:53;153.20;;;39.67;;
9306;SDS011;4691;47.612;7.610;2023-01-25T08:18:19;124.15;;;37.33;;
9306;SDS011;4691;47.612;7.610;2023-01-25T08:20:44;116.35;;;37.17;;
9306;SDS011;4691;47.612;7.610;2023-01-25T08:23:09;120.05;;;36.65;;
9306;SDS011;4691;47.612;7.610;2023-01-25T08:25:34;100.85;;;34.25;;
9306;SDS011;4691;47.612;7.610;2023-01-25T08:28:00;101.05;;;35.10;;
9306;SDS011;4691;47.612;7.610;2023-01-25T08:30:25;119.28;;;35.88;;
9306;SDS011;4691;47.612;7.610;2023-01-25T08:32:50;95.35;;;33.42;;
9306;SDS011;4691;47.612;7.610;2023-01-25T08:35:15;112.13;;;34.60;;
9306;SDS011;4691;47.612;7.610;2023-01-25T08:37:41;108.32;;;36.30;;
9306;SDS011;4691;47.612;7.610;2023-01-25T08:40:06;113.72;;;35.97;;
9306;SDS011;4691;47.612;7.610;2023-01-25T08:42:32;93.68;;;32.60;;
9306;SDS011;4691;47.612;7.610;2023-01-25T08:44:57;110.70;;;36.08;;
9306;SDS011;4691;47.612;7.610;2023-01-25T08:47:22;111.75;;;36.05;;
9306;SDS011;4691;47.612;7.610;2023-01-25T08:49:48;108.85;;;35.83;;
9306;SDS011;4691;47.612;7.610;2023-01-25T08:52:13;99.10;;;35.60;;
9306;SDS011;4691;47.612;7.610;2023-01-25T08:54:39;103.30;;;37.97;;
9306;SDS011;4691;47.612;7.610;2023-01-25T08:57:07;112.78;;;37.70;;
9306;SDS011;4691;47.612;7.610;2023-01-25T08:59:33;114.57;;;36.15;;
9306;SDS011;4691;47.612;7.610;2023-01-25T09:01:58;115.97;;;38.85;;
9306;SDS011;4691;47.612;7.610;2023-01-25T09:04:23;99.15;;;34.05;;
9306;SDS011;4691;47.612;7.610;2023-01-25T09:06:52;121.65;;;39.40;;
9306;SDS011;4691;47.612;7.610;2023-01-25T09:09:17;90.00;;;32.53;;
9306;SDS011;4691;47.612;7.610;2023-01-25T09:11:43;80.28;;;30.80;;
9306;SDS011;4691;47.612;7.610;2023-01-25T09:14:08;81.50;;;29.95;;
9306;SDS011;4691;47.612;7.610;2023-01-25T09:16:33;97.18;;;33.40;;
9306;SDS011;4691;47.612;7.610;2023-01-25T09:19:00;98.53;;;32.55;;
9306;SDS011;4691;47.612;7.610;2023-01-25T09:21:27;85.28;;;30.98;;
9306;SDS011;4691;47.612;7.610;2023-01-25T09:23:53;88.93;;;33.88;;
9306;SDS011;4691;47.612;7.610;2023-01-25T09:26:19;94.97;;;32.72;;
9306;SDS011;4691;47.612;7.610;2023-01-25T09:28:45;94.13;;;34.40;;
9306;SDS011;4691;47.612;7.610;2023-01-25T09:31:12;100.60;;;33.42;;
9306;SDS011;4691;47.612;7.610;2023-01-25T09:33:38;100.38;;;32.63;;
9306;SDS011;4691;47.612;7.610;2023-01-25T09:36:04;95.68;;;33.55;;
9306;SDS011;4691;47.612;7.610;2023-01-25T09:38:30;93.20;;;33.63;;
9306;SDS011;4691;47.612;7.610;2023-01-25T09:41:00;104.68;;;35.83;;
9306;SDS011;4691;47.612;7.610;2023-01-25T09:43:52;93.88;;;34.33;;
9306;SDS011;4691;47.612;7.610;2023-01-25T09:46:56;89.78;;;31.95;;
9306;SDS011;4691;47.612;7.610;2023-01-25T09:55:19;88.40;;;30.52;;
9306;SDS011;4691;47.612;7.610;2023-01-25T09:57:48;86.53;;;31.45;;
9306;SDS011;4691;47.612;7.610;2023-01-25T10:00:22;87.05;;;31.50;;
9306;SDS011;4691;47.612;7.610;2023-01-25T10:02:53;79.93;;;29.90;;
9306;SDS011;4691;47.612;7.610;2023-01-25T10:05:21;83.47;;;30.07;;
9306;SDS011;4691;47.612;7.610;2023-01-25T10:07:58;91.53;;;31.42;;
9306;SDS011;4691;47.612;7.610;2023-01-25T10:10:37;93.80;;;33.40;;
9306;SDS011;4691;47.612;7.610;2023-01-25T10:13:08;98.15;;;33.45;;
9306;SDS011;4691;47.612;7.610;2023-01-25T10:15:47;135.48;;;44.10;;
9306;SDS011;4691;47.612;7.610;2023-01-25T10:26:28;117.75;;;35.22;;
9306;SDS011;4691;47.612;7.610;2023-01-25T10:31:44;100.78;;;34.08;;
9306;SDS011;4691;47.612;7.610;2023-01-25T10:34:15;102.30;;;35.33;;
9306;SDS011;4691;47.612;7.610;2023-01-25T10:36:44;95.85;;;32.97;;
9306;SDS011;4691;47.612;7.610;2023-01-25T10:39:12;85.07;;;33.15;;
9306;SDS011;4691;47.612;7.610;2023-01-25T10:44:40;91.95;;;33.25;;
9306;SDS011;4691;47.612;7.610;2023-01-25T10:47:10;99.28;;;35.45;;
9306;SDS011;4691;47.612;7.610;2023-01-25T10:49:41;94.28;;;34.28;;
9306;SDS011;4691;47.612;7.610;2023-01-25T10:52:12;94.97;;;35.22;;
9306;SDS011;4691;47.612;7.610;2023-01-25T10:57:53;91.53;;;33.25;;
9306;SDS011;4691;47.612;7.610;2023-01-25T11:00:39;86.63;;;30.92;;
9306;SDS011;4691;47.612;7.610;2023-01-25T11:03:05;93.43;;;33.78;;
9306;SDS011;4691;47.612;7.610;2023-01-25T11:05:47;83.57;;;29.75;;
9306;SDS011;4691;47.612;7.610;2023-01-25T11:08:24;87.53;;;30.42;;
9306;SDS011;4691;47.612;7.610;2023-01-25T11:10:57;82.65;;;31.60;;
9306;SDS011;4691;47.612;7.610;2023-01-25T11:13:26;85.28;;;30.45;;
9306;SDS011;4691;47.612;7.610;2023-01-25T11:18:33;88.22;;;32.05;;
9306;SDS011;4691;47.612;7.610;2023-01-25T11:21:15;78.22;;;30.58;;
9306;SDS011;4691;47.612;7.610;2023-01-25T11:23:56;87.00;;;32.05;;
9306;SDS011;4691;47.612;7.610;2023-01-25T11:26:24;83.43;;;28.85;;
9306;SDS011;4691;47.612;7.610;2023-01-25T11:28:50;69.47;;;27.60;;
9306;SDS011;4691;47.612;7.610;2023-01-25T11:31:38;68.13;;;27.23;;
9306;SDS011;4691;47.612;7.610;2023-01-25T11:34:09;65.88;;;27.48;;
9306;SDS011;4691;47.612;7.610;2023-01-25T11:36:56;66.43;;;26.48;;
9306;SDS011;4691;47.612;7.610;2023-01-25T11:45:03;71.20;;;26.80;;
9306;SDS011;4691;47.612;7.610;2023-01-25T12:08:00;75.60;;;28.95;;
9306;SDS011;4691;47.612;7.610;2023-01-25T12:24:11;66.00;;;27.25;;
9306;SDS011;4691;47.612;7.610;2023-01-25T12:29:38;73.00;;;28.40;;
9306;SDS011;4691;47.612;7.610;2023-01-25T12:32:42;78.15;;;29.10;;
9306;SDS011;4691;47.612;7.610;2023-01-25T12:35:31;78.72;;;28.83;;
9306;SDS011;4691;47.612;7.610;2023-01-25T12:41:02;60.47;;;25.88;;
9306;SDS011;4691;47.612;7.610;2023-01-25T12:46:57;62.75;;;24.88;;
9306;SDS011;4691;47.612;7.610;2023-01-25T12:52:40;59.60;;;23.52;;
9306;SDS011;4691;47.612;7.610;2023-01-25T12:55:16;66.47;;;28.27;;
9306;SDS011;4691;47.612;7.610;2023-01-25T12:57:58;59.30;;;25.05;;
9306;SDS011;4691;47.612;7.610;2023-01-25T13:00:41;56.95;;;23.27;;
9306;SDS011;4691;47.612;7.610;2023-01-25T13:03:27;63.47;;;24.85;;
9306;SDS011;4691;47.612;7.610;2023-01-25T13:09:03;66.28;;;24.42;;
9306;SDS011;4691;47.612;7.610;2023-01-25T13:11:55;61.50;;;24.30;;
9306;SDS011;4691;47.612;7.610;2023-01-25T13:14:27;59.47;;;23.98;;
9306;SDS011;4691;47.612;7.610;2023-01-25T13:28:46;65.82;;;25.63;;
9306;SDS011;4691;47.612;7.610;2023-01-25T13:34:02;64.53;;;25.00;;
9306;SDS011;4691;47.612;7.610;2023-01-25T13:36:47;69.85;;;26.65;;
9306;SDS011;4691;47.612;7.610;2023-01-25T13:42:17;77.95;;;29.45;;
9306;SDS011;4691;47.612;7.610;2023-01-25T13:44:53;66.43;;;25.10;;
9306;SDS011;4691;47.612;7.610;2023-01-25T13:47:23;70.95;;;28.13;;
9306;SDS011;4691;47.612;7.610;2023-01-25T13:50:18;66.88;;;26.77;;
9306;SDS011;4691;47.612;7.610;2023-01-25T13:52:58;73.70;;;28.23;;
9306;SDS011;4691;47.612;7.610;2023-01-25T13:55:28;71.47;;;27.83;;
9306;SDS011;4691;47.612;7.610;2023-01-25T13:58:47;73.63;;;27.48;;
9306;SDS011;4691;47.612;7.610;2023-01-25T14:01:13;67.28;;;25.35;;
9306;SDS011;4691;47.612;7.610;2023-01-25T14:03:44;75.00;;;28.20;;
9306;SDS011;4691;47.612;7.610;2023-01-25T14:08:50;77.07;;;29.17;;
9306;SDS011;4691;47.612;7.610;2023-01-25T14:11:21;74.57;;;27.70;;
9306;SDS011;4691;47.612;7.610;2023-01-25T14:16:42;74.65;;;27.83;;
9306;SDS011;4691;47.612;7.610;2023-01-25T14:19:24;62.47;;;25.02;;
9306;SDS011;4691;47.612;7.610;2023-01-25T14:25:13;73.50;;;28.10;;
9306;SDS011;4691;47.612;7.610;2023-01-25T14:30:16;70.63;;;27.00;;
9306;SDS011;4691;47.612;7.610;2023-01-25T14:32:49;74.75;;;27.45;;
9306;SDS011;4691;47.612;7.610;2023-01-25T14:37:59;71.25;;;26.70;;
9306;SDS011;4691;47.612;7.610;2023-01-25T14:40:26;74.88;;;27.77;;
9306;SDS011;4691;47.612;7.610;2023-01-25T14:42:56;73.93;;;28.50;;
9306;SDS011;4691;47.612;7.610;2023-01-25T14:45:26;69.72;;;28.48;;
9306;SDS011;4691;47.612;7.610;2023-01-25T14:47:52;66.93;;;29.40;;
9306;SDS011;4691;47.612;7.610;2023-01-25T14:50:30;71.28;;;28.20;;
9306;SDS011;4691;47.612;7.610;2023-01-25T14:53:07;73.45;;;27.75;;
9306;SDS011;4691;47.612;7.610;2023-01-25T14:55:43;70.80;;;26.80;;
9306;SDS011;4691;47.612;7.610;2023-01-25T14:58:21;71.80;;;29.08;;
9306;SDS011;4691;47.612;7.610;2023-01-25T15:01:06;76.10;;;28.90;;
9306;SDS011;4691;47.612;7.610;2023-01-25T15:03:38;91.20;;;29.10;;
9306;SDS011;4691;47.612;7.610;2023-01-25T15:06:08;77.75;;;31.13;;
9306;SDS011;4691;47.612;7.610;2023-01-25T15:08:37;96.23;;;31.87;;
9306;SDS011;4691;47.612;7.610;2023-01-25T15:14:33;79.53;;;29.27;;
9306;SDS011;4691;47.612;7.610;2023-01-25T15:17:34;76.10;;;29.20;;
9306;SDS011;4691;47.612;7.610;2023-01-25T15:26:10;95.10;;;32.92;;
9306;SDS011;4691;47.612;7.610;2023-01-25T15:29:11;89.85;;;30.08;;
9306;SDS011;4691;47.612;7.610;2023-01-25T15:34:57;84.95;;;30.15;;
9306;SDS011;4691;47.612;7.610;2023-01-25T15:40:27;81.78;;;30.48;;
9306;SDS011;4691;47.612;7.610;2023-01-25T15:42:53;85.25;;;31.25;;
9306;SDS011;4691;47.612;7.610;2023-01-25T15:45:19;84.85;;;31.48;;
9306;SDS011;4691;47.612;7.610;2023-01-25T15:47:44;84.60;;;30.00;;
9306;SDS011;4691;47.612;7.610;2023-01-25T15:50:15;85.25;;;30.27;;
9306;SDS011;4691;47.612;7.610;2023-01-25T15:52:42;76.05;;;28.58;;
9306;SDS011;4691;47.612;7.610;2023-01-25T15:55:10;86.28;;;30.77;;
9306;SDS011;4691;47.612;7.610;2023-01-25T15:57:36;80.97;;;30.88;;
9306;SDS011;4691;47.612;7.610;2023-01-25T16:00:02;80.80;;;30.15;;
9306;SDS011;4691;47.612;7.610;2023-01-25T16:02:28;96.25;;;36.25;;
9306;SDS011;4691;47.612;7.610;2023-01-25T16:05:22;80.25;;;29.20;;
9306;SDS011;4691;47.612;7.610;2023-01-25T16:10:50;87.25;;;30.92;;
9306;SDS011;4691;47.612;7.610;2023-01-25T16:13:15;89.82;;;31.80;;
9306;SDS011;4691;47.612;7.610;2023-01-25T16:15:41;87.43;;;31.23;;
9306;SDS011;4691;47.612;7.610;2023-01-25T16:18:13;85.40;;;31.55;;
9306;SDS011;4691;47.612;7.610;2023-01-25T16:20:39;80.15;;;30.45;;
9306;SDS011;4691;47.612;7.610;2023-01-25T16:23:05;92.50;;;34.28;;
9306;SDS011;4691;47.612;7.610;2023-01-25T16:25:32;91.22;;;33.28;;
9306;SDS011;4691;47.612;7.610;2023-01-25T16:27:57;86.55;;;30.42;;
9306;SDS011;4691;47.612;7.610;2023-01-25T16:30:28;85.75;;;32.00;;
9306;SDS011;4691;47.612;7.610;2023-01-25T16:32:58;82.43;;;30.50;;
9306;SDS011;4691;47.612;7.610;2023-01-25T16:35:26;82.32;;;31.55;;
9306;SDS011;4691;47.612;7.610;2023-01-25T16:37:53;80.70;;;30.02;;
9306;SDS011;4691;47.612;7.610;2023-01-25T16:40:26;86.03;;;31.30;;
9306;SDS011;4691;47.612;7.610;2023-01-25T16:42:55;83.50;;;31.13;;
9306;SDS011;4691;47.612;7.610;2023-01-25T16:45:21;93.03;;;31.20;;
9306;SDS011;4691;47.612;7.610;2023-01-25T16:47:50;87.75;;;31.60;;
9306;SDS011;4691;47.612;7.610;2023-01-25T16:50:19;91.45;;;32.63;;
9306;SDS011;4691;47.612;7.610;2023-01-25T16:52:48;85.63;;;30.65;;
9306;SDS011;4691;47.612;7.610;2023-01-25T16:55:18;84.55;;;31.38;;
9306;SDS011;4691;47.612;7.610;2023-01-25T16:57:49;87.80;;;31.83;;
9306;SDS011;4691;47.612;7.610;2023-01-25T17:00:18;98.43;;;36.22;;
9306;SDS011;4691;47.612;7.610;2023-01-25T17:02:46;99.03;;;34.60;;
9306;SDS011;4691;47.612;7.610;2023-01-25T17:05:14;90.22;;;33.08;;
9306;SDS011;4691;47.612;7.610;2023-01-25T17:07:40;98.95;;;36.33;;
9306;SDS011;4691;47.612;7.610;2023-01-25T17:10:05;85.53;;;32.75;;
9306;SDS011;4691;47.612;7.610;2023-01-25T17:12:32;97.32;;;33.80;;
9306;SDS011;4691;47.612;7.610;2023-01-25T17:15:00;89.85;;;32.92;;
9306;SDS011;4691;47.612;7.610;2023-01-25T17:17:33;90.57;;;32.90;;
9306;SDS011;4691;47.612;7.610;2023-01-25T17:19:58;97.68;;;33.08;;
9306;SDS011;4691;47.612;7.610;2023-01-25T17:22:24;93.13;;;34.15;;
9306;SDS011;4691;47.612;7.610;2023-01-25T17:24:57;97.07;;;34.03;;